Time;durP1;ratioP1;P1;durP2;ratioP2;P2;SDS_P1;SDS_P2;PMS_P1;PMS_P2;Temp;Humidity;BMP_temperature;BMP_pressure;BME280_temperature;BME280_humidity;BME280_pressure;Samples;Min_cycle;Max_cycle;Signal;HPM_P1;HPM_P2
2023/03/29 00:01:35;;;;;;;;;;;22.10;48.00;;;;;;6176979;28;20382;-57
2023/03/29 00:04:38;;;;;;;;;;;21.90;48.10;;;;;;6176633;28;19929;-57
2023/03/29 00:07:40;;;;;;;;;;;22.10;48.10;;;;;;6176860;28;19929;-57
2023/03/29 00:10:41;;;;;;;;;;;22.00;48.30;;;;;;6176466;28;20449;-56
2023/03/29 00:13:43;;;;;;;;;;;22.10;48.30;;;;;;6177106;28;19997;-57
2023/03/29 00:16:47;;;;;;;;;;;22.00;48.30;;;;;;6159566;28;19946;-57
2023/03/29 00:19:49;;;;;;;;;;;22.40;45.70;;;;;;6176718;28;20067;-57
2023/03/29 00:22:50;;;;;;;;;;;22.00;48.30;;;;;;6176184;28;20267;-56
2023/03/29 00:25:52;;;;;;;;;;;22.00;48.40;;;;;;6176573;28;19922;-56
2023/03/29 00:28:54;;;;;;;;;;;22.80;48.60;;;;;;6159630;28;19926;-57
2023/03/29 00:31:56;;;;;;;;;;;21.90;48.40;;;;;;6175882;28;19922;-57
2023/03/29 00:34:59;;;;;;;;;;;22.60;48.70;;;;;;6176416;28;20000;-56
2023/03/29 00:38:01;;;;;;;;;;;21.90;48.00;;;;;;6176056;28;19922;-56
2023/03/29 00:41:05;;;;;;;;;;;22.00;48.50;;;;;;6175947;28;19926;-56
2023/03/29 00:44:21;;;;;;;;;;;22.00;48.50;;;;;;6175948;28;19922;-56
2023/03/29 00:47:25;;;;;;;;;;;22.20;48.40;;;;;;6160461;28;19922;-56
2023/03/29 00:50:29;;;;;;;;;;;22.10;48.40;;;;;;6175625;28;19922;-57
2023/03/29 00:53:33;;;;;;;;;;;21.90;48.40;;;;;;6175718;28;19990;-56
2023/03/29 00:56:38;;;;;;;;;;;22.40;48.80;;;;;;6159507;28;19959;-57
2023/03/29 00:59:41;;;;;;;;;;;22.40;48.80;;;;;;6175689;28;19922;-56
2023/03/29 01:02:49;;;;;;;;;;;22.00;48.60;;;;;;6176003;28;19953;-55
2023/03/29 01:05:59;;;;;;;;;;;21.80;48.70;;;;;;6176303;28;19964;-52
2023/03/29 01:09:06;;;;;;;;;;;22.00;48.60;;;;;;6175914;28;19922;-55
2023/03/29 01:12:11;;;;;;;;;;;22.00;48.60;;;;;;6175700;28;19929;-56
2023/03/29 01:15:14;;;;;;;;;;;22.00;48.70;;;;;;6176158;28;19922;-56
2023/03/29 01:18:20;;;;;;;;;;;22.10;48.80;;;;;;6175987;28;19929;-56
2023/03/29 01:21:28;;;;;;;;;;;21.90;48.80;;;;;;6175770;28;19926;-56
2023/03/29 01:24:42;;;;;;;;;;;22.10;48.90;;;;;;6176009;28;20453;-56
2023/03/29 01:27:50;;;;;;;;;;;21.90;48.70;;;;;;6175607;28;19924;-55
2023/03/29 01:30:55;;;;;;;;;;;22.20;49.00;;;;;;6175631;28;19965;-55
2023/03/29 01:34:00;;;;;;;;;;;22.00;48.90;;;;;;6175481;28;20024;-56
2023/03/29 01:37:06;;;;;;;;;;;21.90;48.80;;;;;;6175765;28;19936;-56
2023/03/29 01:40:09;;;;;;;;;;;21.90;48.90;;;;;;6175640;28;20394;-55
2023/03/29 01:43:17;;;;;;;;;;;21.90;49.00;;;;;;6175658;28;19925;-56
2023/03/29 01:46:26;;;;;;;;;;;21.90;48.90;;;;;;6175649;28;19922;-55
2023/03/29 01:49:31;;;;;;;;;;;21.80;48.90;;;;;;6175313;28;19921;-56
2023/03/29 01:52:34;;;;;;;;;;;21.90;49.00;;;;;;6175171;28;19961;-56
2023/03/29 01:55:37;;;;;;;;;;;21.90;49.20;;;;;;6175786;28;19929;-55
2023/03/29 01:58:42;;;;;;;;;;;21.90;49.20;;;;;;6175174;28;19922;-56
2023/03/29 02:01:47;;;;;;;;;;;22.10;49.40;;;;;;6175096;28;19922;-55
2023/03/29 02:04:52;;;;;;;;;;;21.90;49.50;;;;;;6158232;28;19926;-56
2023/03/29 02:07:55;;;;;;;;;;;22.10;49.50;;;;;;6157785;28;19929;-55
2023/03/29 02:10:56;;;;;;;;;;;21.90;49.40;;;;;;6174832;28;20285;-54
2023/03/29 02:13:58;;;;;;;;;;;21.90;49.50;;;;;;6175199;28;19945;-56
2023/03/29 02:17:11;;;;;;;;;;;21.80;49.50;;;;;;6174954;28;19922;-55
2023/03/29 02:20:16;;;;;;;;;;;22.00;49.30;;;;;;6174800;28;19922;-55
2023/03/29 02:23:22;;;;;;;;;;;21.80;49.30;;;;;;6174805;28;19922;-55
2023/03/29 02:26:24;;;;;;;;;;;22.00;49.50;;;;;;6174659;28;19922;-56
2023/03/29 02:29:26;;;;;;;;;;;22.00;49.70;;;;;;6174951;28;19929;-56
2023/03/29 02:32:30;;;;;;;;;;;22.30;49.80;;;;;;6174567;28;20286;-56
2023/03/29 02:35:33;;;;;;;;;;;21.90;49.60;;;;;;6174510;28;19926;-55
2023/03/29 02:38:36;;;;;;;;;;;21.80;49.50;;;;;;6174810;28;19922;-55
2023/03/29 02:41:37;;;;;;;;;;;21.70;49.50;;;;;;6174520;28;19922;-56
2023/03/29 02:44:44;;;;;;;;;;;21.70;49.60;;;;;;6174524;28;20049;-55
2023/03/29 02:47:48;;;;;;;;;;;21.60;49.60;;;;;;6174648;28;20290;-55
2023/03/29 02:50:53;;;;;;;;;;;21.40;49.50;;;;;;6174376;28;19922;-56
2023/03/29 02:53:58;;;;;;;;;;;21.80;49.70;;;;;;6174303;28;19926;-56
2023/03/29 02:57:02;;;;;;;;;;;22.00;49.80;;;;;;6174115;28;19922;-55
2023/03/29 03:00:08;;;;;;;;;;;21.70;49.70;;;;;;6157250;28;19922;-56
2023/03/29 03:03:10;;;;;;;;;;;22.20;50.00;;;;;;6174153;28;20038;-56
2023/03/29 03:06:12;;;;;;;;;;;21.70;49.90;;;;;;6156959;28;19922;-53
2023/03/29 03:09:14;;;;;;;;;;;21.60;49.90;;;;;;6174259;28;19933;-56
2023/03/29 03:12:18;;;;;;;;;;;21.80;49.90;;;;;;6173857;28;19949;-56
2023/03/29 03:15:20;;;;;;;;;;;21.80;50.20;;;;;;6174063;28;19926;-56
2023/03/29 03:18:22;;;;;;;;;;;22.00;50.30;;;;;;6174384;28;20317;-56
2023/03/29 03:21:24;;;;;;;;;;;21.70;50.20;;;;;;6173889;28;19929;-56
2023/03/29 03:24:27;;;;;;;;;;;21.80;50.20;;;;;;6176283;28;19922;-56
2023/03/29 03:27:32;;;;;;;;;;;21.80;50.10;;;;;;6178196;28;19922;-56
2023/03/29 03:30:34;;;;;;;;;;;21.80;50.10;;;;;;6178108;28;19922;-55
2023/03/29 03:33:56;;;;;;;;;;;22.60;51.20;;;;;;6177530;28;20004;-56
2023/03/29 03:37:11;;;;;;;;;;;21.80;50.50;;;;;;6177876;28;19969;-56
2023/03/29 03:40:13;;;;;;;;;;;21.80;50.40;;;;;;6177609;28;19922;-56
2023/03/29 03:43:15;;;;;;;;;;;21.90;49.40;;;;;;6177890;28;19961;-56
2023/03/29 03:46:21;;;;;;;;;;;21.60;50.30;;;;;;6177715;28;19922;-57
2023/03/29 03:49:23;;;;;;;;;;;21.80;50.40;;;;;;6177486;28;19945;-57
2023/03/29 03:52:25;;;;;;;;;;;21.80;50.50;;;;;;6177672;28;19926;-56
2023/03/29 03:55:28;;;;;;;;;;;21.80;51.20;;;;;;6177323;28;20378;-56
2023/03/29 03:58:40;;;;;;;;;;;21.70;50.50;;;;;;6177265;28;19929;-56
2023/03/29 04:01:44;;;;;;;;;;;21.80;50.60;;;;;;6177587;28;20840;-56
2023/03/29 04:04:49;;;;;;;;;;;22.30;50.90;;;;;;6177250;28;19948;-56
2023/03/29 04:07:54;;;;;;;;;;;21.70;50.80;;;;;;6177167;28;19999;-55
2023/03/29 04:11:16;;;;;;;;;;;21.60;50.60;;;;;;6176748;28;19929;-56
2023/03/29 04:14:17;;;;;;;;;;;21.90;50.00;;;;;;6176986;28;19929;-56
2023/03/29 04:17:34;;;;;;;;;;;21.60;50.80;;;;;;6177041;28;20271;-56
2023/03/29 04:20:46;;;;;;;;;;;21.70;50.80;;;;;;6177185;28;19929;-55
2023/03/29 04:23:52;;;;;;;;;;;21.80;50.70;;;;;;6160379;28;19965;-55
2023/03/29 04:26:53;;;;;;;;;;;21.60;50.60;;;;;;6176665;28;19922;-55
2023/03/29 04:29:58;;;;;;;;;;;21.60;50.80;;;;;;6128411;28;20313;-55
2023/03/29 04:33:20;;;;;;;;;;;21.70;51.00;;;;;;6176430;28;20405;-56
2023/03/29 04:36:27;;;;;;;;;;;22.40;51.30;;;;;;6175570;28;19922;-56
2023/03/29 04:39:32;;;;;;;;;;;21.50;50.70;;;;;;6176574;28;20259;-55
2023/03/29 04:42:36;;;;;;;;;;;21.50;50.90;;;;;;6176491;28;20017;-56
2023/03/29 04:45:38;;;;;;;;;;;21.60;51.10;;;;;;6176584;28;19928;-56
2023/03/29 04:48:46;;;;;;;;;;;21.60;51.10;;;;;;6176441;28;19922;-55
2023/03/29 04:51:48;;;;;;;;;;;21.80;51.10;;;;;;6176168;28;20500;-56
2023/03/29 04:54:54;;;;;;;;;;;22.50;51.50;;;;;;6176465;28;19922;-56
2023/03/29 04:58:00;;;;;;;;;;;21.70;51.00;;;;;;6176276;28;20032;-56
2023/03/29 05:01:05;;;;;;;;;;;21.60;51.20;;;;;;6176087;28;19922;-56
2023/03/29 05:04:17;;;;;;;;;;;21.70;51.30;;;;;;6176371;28;19930;-56
2023/03/29 05:07:33;;;;;;;;;;;22.40;51.60;;;;;;6176313;28;19922;-55
2023/03/29 05:10:34;;;;;;;;;;;21.70;51.30;;;;;;6175954;28;20341;-56
2023/03/29 05:13:36;;;;;;;;;;;21.70;51.30;;;;;;6158674;28;19969;-54
2023/03/29 05:16:38;;;;;;;;;;;21.50;51.20;;;;;;6175871;28;19957;-56
2023/03/29 05:19:42;;;;;;;;;;;22.40;51.70;;;;;;6175755;28;19929;-56
2023/03/29 05:22:43;;;;;;;;;;;21.60;51.40;;;;;;6176037;28;19929;-56
2023/03/29 05:25:52;;;;;;;;;;;21.60;51.40;;;;;;6175747;28;19973;-56
2023/03/29 05:28:53;;;;;;;;;;;21.70;51.40;;;;;;6175904;28;20373;-56
2023/03/29 05:31:55;;;;;;;;;;;22.60;51.90;;;;;;6175835;28;19922;-55
2023/03/29 05:34:57;;;;;;;;;;;21.70;51.50;;;;;;6175552;28;20021;-56
2023/03/29 05:38:00;;;;;;;;;;;22.00;51.60;;;;;;6175497;28;20318;-55
2023/03/29 05:41:02;;;;;;;;;;;21.70;51.30;;;;;;6175798;28;20037;-56
2023/03/29 05:44:24;;;;;;;;;;;22.10;51.50;;;;;;6175249;28;19922;-56
2023/03/29 05:47:32;;;;;;;;;;;21.60;51.20;;;;;;6174918;28;20371;-56
2023/03/29 05:50:35;;;;;;;;;;;22.10;51.80;;;;;;6174976;28;19922;-56
2023/03/29 05:53:37;;;;;;;;;;;21.60;51.60;;;;;;6175172;28;20322;-56
2023/03/29 05:56:38;;;;;;;;;;;22.10;51.80;;;;;;6175161;28;19924;-56
2023/03/29 05:59:41;;;;;;;;;;;21.70;51.70;;;;;;6174908;28;19961;-56
2023/03/29 06:02:43;;;;;;;;;;;22.10;51.90;;;;;;6175198;28;19978;-55
2023/03/29 06:05:47;;;;;;;;;;;21.60;51.60;;;;;;6174984;28;20296;-56
2023/03/29 06:08:52;;;;;;;;;;;22.30;52.00;;;;;;6174851;28;19969;-55
2023/03/29 06:12:04;;;;;;;;;;;21.60;51.50;;;;;;6174938;28;19922;-56
2023/03/29 06:15:13;;;;;;;;;;;22.50;52.00;;;;;;6174686;28;20393;-55
2023/03/29 06:18:23;;;;;;;;;;;21.70;51.60;;;;;;6174652;28;19965;-55
2023/03/29 06:21:26;;;;;;;;;;;22.40;52.20;;;;;;6174933;28;19933;-56
2023/03/29 06:24:27;;;;;;;;;;;21.70;51.80;;;;;;6175128;28;19922;-56
2023/03/29 06:27:36;;;;;;;;;;;22.60;52.30;;;;;;6174456;28;20389;-55
2023/03/29 06:30:37;;;;;;;;;;;21.50;51.60;;;;;;6175244;28;19952;-56
2023/03/29 06:33:41;;;;;;;;;;;22.30;52.10;;;;;;6174654;28;20283;-56
2023/03/29 06:36:56;;;;;;;;;;;21.70;51.50;;;;;;6174971;28;20385;-55
2023/03/29 06:39:58;;;;;;;;;;;22.30;52.10;;;;;;6173979;28;19922;-55
2023/03/29 06:43:05;;;;;;;;;;;21.60;51.80;;;;;;6174297;28;19977;-55
2023/03/29 06:46:27;;;;;;;;;;;22.10;52.00;;;;;;6174124;28;19922;-56
2023/03/29 06:49:30;;;;;;;;;;;21.80;51.60;;;;;;6173873;28;19922;-55
2023/03/29 06:52:44;;;;;;;;;;;22.10;51.80;;;;;;6174062;28;19972;-55
2023/03/29 06:55:47;;;;;;;;;;;21.70;51.70;;;;;;6173862;28;19930;-52
2023/03/29 06:59:09;;;;;;;;;;;22.30;52.10;;;;;;6175819;28;19929;-54
2023/03/29 07:06:50;;;;;;;;;;;22.20;49.20;;;;;;6178539;28;19910;-55
2023/03/29 07:09:54;;;;;;;;;;;22.30;51.60;;;;;;6177753;28;19921;-54
2023/03/29 07:13:14;;;;;;;;;;;22.10;51.80;;;;;;6177612;28;19977;-55
2023/03/29 07:16:18;;;;;;;;;;;22.40;51.30;;;;;;6177536;28;19922;-55
2023/03/29 07:19:26;;;;;;;;;;;22.30;51.60;;;;;;6177551;28;19926;-55
2023/03/29 07:22:43;;;;;;;;;;;22.50;51.90;;;;;;6177379;28;19922;-54
2023/03/29 07:25:45;;;;;;;;;;;21.90;51.40;;;;;;6160919;28;19965;-55
2023/03/29 07:28:48;;;;;;;;;;;22.40;51.80;;;;;;6178240;28;20434;-54
2023/03/29 07:31:50;;;;;;;;;;;22.00;51.20;;;;;;6177317;28;19928;-53
2023/03/29 07:35:04;;;;;;;;;;;22.20;51.50;;;;;;6178051;28;19929;-53
2023/03/29 07:38:08;;;;;;;;;;;22.40;51.30;;;;;;6177376;28;19922;-55
2023/03/29 07:41:14;;;;;;;;;;;22.80;51.60;;;;;;6177221;28;20016;-54
2023/03/29 07:44:20;;;;;;;;;;;22.80;53.10;;;;;;6177739;28;19977;-55
2023/03/29 07:47:22;;;;;;;;;;;22.90;51.60;;;;;;6177714;28;20025;-55
2023/03/29 07:50:24;;;;;;;;;;;22.00;51.00;;;;;;6177321;28;19969;-55
2023/03/29 07:53:32;;;;;;;;;;;22.60;51.10;;;;;;6160560;28;19921;-54
2023/03/29 07:56:38;;;;;;;;;;;22.10;50.50;;;;;;6176849;28;20283;-51
2023/03/29 07:59:54;;;;;;;;;;;23.00;51.60;;;;;;6176645;28;20310;-53
2023/03/29 08:03:02;;;;;;;;;;;22.10;51.00;;;;;;6176994;28;19922;-53
2023/03/29 08:06:05;;;;;;;;;;;22.60;51.20;;;;;;6177262;28;19922;-54
2023/03/29 08:09:07;;;;;;;;;;;22.20;51.00;;;;;;6176410;28;19922;-54
2023/03/29 08:12:09;;;;;;;;;;;22.50;51.20;;;;;;6176585;28;19922;-55
2023/03/29 08:15:12;;;;;;;;;;;22.30;51.10;;;;;;6176665;28;20337;-54
2023/03/29 08:18:13;;;;;;;;;;;22.70;51.20;;;;;;6176935;28;19929;-53
2023/03/29 08:21:15;;;;;;;;;;;22.30;50.90;;;;;;6176553;28;19926;-54
2023/03/29 08:24:21;;;;;;;;;;;22.80;50.80;;;;;;6176580;28;19954;-54
2023/03/29 08:27:28;;;;;;;;;;;22.30;51.10;;;;;;6176935;28;19922;-52
2023/03/29 08:30:30;;;;;;;;;;;23.00;51.60;;;;;;6176446;28;19958;-52
2023/03/29 08:33:32;;;;;;;;;;;22.70;51.10;;;;;;6176275;28;19922;-52
2023/03/29 08:36:44;;;;;;;;;;;23.00;51.50;;;;;;6176070;28;19973;-57
2023/03/29 08:39:54;;;;;;;;;;;22.30;50.80;;;;;;6176287;28;20016;-54
2023/03/29 08:43:29;;;;;;;;;;;22.60;51.00;;;;;;6175789;28;20401;-54
2023/03/29 08:46:47;;;;;;;;;;;22.70;51.20;;;;;;6175861;28;19922;-53
2023/03/29 08:50:11;;;;;;;;;;;22.70;50.60;;;;;;6176280;28;19922;-53
2023/03/29 08:53:20;;;;;;;;;;;22.40;53.00;;;;;;6176041;28;20282;-52
2023/03/29 08:56:35;;;;;;;;;;;22.90;53.40;;;;;;6176136;28;19930;-52
2023/03/29 08:59:56;;;;;;;;;;;22.60;52.90;;;;;;6176048;28;19984;-52
2023/03/29 09:03:01;;;;;;;;;;;23.10;53.50;;;;;;6176356;28;19922;-49
2023/03/29 09:06:05;;;;;;;;;;;22.70;51.20;;;;;;6175734;28;19922;-47
2023/03/29 09:09:12;;;;;;;;;;;23.20;53.20;;;;;;6175613;28;20322;-47
2023/03/29 09:12:21;;;;;;;;;;;22.50;52.70;;;;;;6158495;28;19922;-47
2023/03/29 09:15:27;;;;;;;;;;;22.60;52.50;;;;;;6175794;28;19922;-50
2023/03/29 09:18:42;;;;;;;;;;;22.60;52.70;;;;;;6159539;28;20283;-47
2023/03/29 09:21:49;;;;;;;;;;;23.00;52.70;;;;;;6174648;28;20029;-47
2023/03/29 09:24:56;;;;;;;;;;;22.90;52.80;;;;;;6175594;28;19962;-49
2023/03/29 09:28:03;;;;;;;;;;;23.00;52.50;;;;;;6175453;28;19929;-50
2023/03/29 09:31:18;;;;;;;;;;;22.50;52.60;;;;;;6175878;28;20274;-46
2023/03/29 09:34:21;;;;;;;;;;;23.20;53.00;;;;;;6175482;28;20350;-49
2023/03/29 09:37:31;;;;;;;;;;;22.50;52.50;;;;;;6175097;28;19961;-50
2023/03/29 09:40:37;;;;;;;;;;;23.10;52.70;;;;;;6174899;28;19972;-47
2023/03/29 09:43:45;;;;;;;;;;;22.80;52.60;;;;;;6175399;28;19992;-49
2023/03/29 09:46:54;;;;;;;;;;;23.40;52.90;;;;;;6174987;28;19972;-49
2023/03/29 09:50:01;;;;;;;;;;;22.30;52.20;;;;;;6174867;28;19972;-51
2023/03/29 09:53:04;;;;;;;;;;;23.40;52.70;;;;;;6175003;28;19929;-46
2023/03/29 09:56:14;;;;;;;;;;;22.50;52.10;;;;;;6174960;28;19945;-51
2023/03/29 09:59:20;;;;;;;;;;;23.30;52.80;;;;;;6174888;28;20008;-46
2023/03/29 10:02:22;;;;;;;;;;;22.80;52.40;;;;;;6174578;28;19922;-45
2023/03/29 10:05:25;;;;;;;;;;;23.30;52.60;;;;;;6174844;28;20332;-50
2023/03/29 10:08:27;;;;;;;;;;;22.70;52.10;;;;;;6174885;28;19922;-52
2023/03/29 10:11:33;;;;;;;;;;;23.40;65.30;;;;;;6175019;28;19922;-52
2023/03/29 10:14:37;;;;;;;;;;;22.60;65.80;;;;;;6174776;28;19953;-52
2023/03/29 10:17:40;;;;;;;;;;;23.10;66.30;;;;;;6174598;28;20470;-53
2023/03/29 10:20:41;;;;;;;;;;;22.80;67.00;;;;;;6174860;28;20013;-52
2023/03/29 10:23:44;;;;;;;;;;;23.40;71.90;;;;;;6174896;28;19922;-50
2023/03/29 10:26:46;;;;;;;;;;;23.20;70.90;;;;;;6174550;28;19922;-50
2023/03/29 10:29:48;;;;;;;;;;;23.10;70.10;;;;;;6175007;28;20354;-52
2023/03/29 10:32:58;;;;;;;;;;;22.90;69.40;;;;;;6174757;28;19922;-51
2023/03/29 10:36:03;;;;;;;;;;;23.20;69.30;;;;;;6178701;28;19922;-52
2023/03/29 10:39:05;;;;;;;;;;;22.90;66.10;;;;;;6179327;28;20013;-52
2023/03/29 10:42:10;;;;;;;;;;;23.30;68.90;;;;;;6178811;28;20476;-51
2023/03/29 10:45:18;;;;;;;;;;;22.90;68.50;;;;;;6178463;28;19922;-52
2023/03/29 10:48:24;;;;;;;;;;;23.10;68.10;;;;;;6161593;28;20366;-52
2023/03/29 10:51:28;;;;;;;;;;;22.80;68.40;;;;;;6178910;28;19968;-52
2023/03/29 10:54:30;;;;;;;;;;;23.20;68.50;;;;;;6178087;28;19929;-52
2023/03/29 10:57:35;;;;;;;;;;;22.90;68.40;;;;;;6178508;28;19922;-52
2023/03/29 11:00:41;;;;;;;;;;;23.50;68.70;;;;;;6178308;28;19929;-52
2023/03/29 11:03:54;;;;;;;;;;;23.00;68.40;;;;;;6177954;28;19921;-53
2023/03/29 11:07:05;;;;;;;;;;;23.30;63.50;;;;;;6178577;28;19945;-52
2023/03/29 11:10:15;;;;;;;;;;;22.90;63.00;;;;;;6178111;28;20383;-51
2023/03/29 11:13:20;;;;;;;;;;;23.50;63.30;;;;;;6177454;28;19921;-50
2023/03/29 11:16:29;;;;;;;;;;;23.10;63.10;;;;;;6177774;28;20367;-52
2023/03/29 11:19:41;;;;;;;;;;;23.50;63.20;;;;;;6177743;28;19926;-51
2023/03/29 11:22:46;;;;;;;;;;;22.80;62.80;;;;;;6177692;28;19953;-53
2023/03/29 11:25:52;;;;;;;;;;;23.50;63.00;;;;;;6178471;28;19922;-51
2023/03/29 11:28:56;;;;;;;;;;;23.00;62.70;;;;;;6177517;28;20025;-52
2023/03/29 11:32:04;;;;;;;;;;;23.30;62.80;;;;;;6177662;28;20405;-52
2023/03/29 11:35:18;;;;;;;;;;;23.00;62.60;;;;;;6177402;28;20016;-52
2023/03/29 11:38:22;;;;;;;;;;;23.40;61.40;;;;;;6177654;28;19922;-51
2023/03/29 11:41:26;;;;;;;;;;;22.90;62.30;;;;;;6160456;28;19922;-52
2023/03/29 11:44:28;;;;;;;;;;;23.30;62.20;;;;;;6176539;28;20390;-52
2023/03/29 11:47:32;;;;;;;;;;;23.10;62.10;;;;;;6160093;28;19961;-54
2023/03/29 11:50:38;;;;;;;;;;;23.50;62.00;;;;;;6177219;28;20473;-55
2023/03/29 11:53:45;;;;;;;;;;;23.00;61.50;;;;;;6176886;28;19961;-54
2023/03/29 11:56:48;;;;;;;;;;;23.30;61.40;;;;;;6177432;28;20449;-52
2023/03/29 11:59:52;;;;;;;;;;;23.00;61.30;;;;;;6176939;28;19928;-54
2023/03/29 12:02:57;;;;;;;;;;;23.70;61.70;;;;;;6160052;28;20354;-48
2023/03/29 12:06:04;;;;;;;;;;;23.00;61.00;;;;;;6160517;28;20351;-54
2023/03/29 12:09:08;;;;;;;;;;;23.70;61.30;;;;;;6177025;28;19922;-54
2023/03/29 12:12:13;;;;;;;;;;;23.20;61.00;;;;;;6176607;28;19922;-54
2023/03/29 12:15:18;;;;;;;;;;;23.50;60.90;;;;;;6177249;28;19922;-51
2023/03/29 12:18:22;;;;;;;;;;;23.20;60.70;;;;;;6176896;28;19921;-53
2023/03/29 12:21:25;;;;;;;;;;;23.50;60.80;;;;;;6176489;28;20347;-54
2023/03/29 12:24:29;;;;;;;;;;;23.40;60.40;;;;;;6176464;28;19929;-53
2023/03/29 12:27:32;;;;;;;;;;;;;;;;;;6176697;28;19926;-51
2023/03/29 12:30:41;;;;;;;;;;;23.40;55.50;;;;;;6176650;28;20397;-50
2023/03/29 12:33:56;;;;;;;;;;;23.60;59.30;;;;;;6176838;28;19922;-49
2023/03/29 12:37:30;;;;;;;;;;;23.30;59.90;;;;;;6176092;28;19922;-49
2023/03/29 12:40:53;;;;;;;;;;;23.90;61.90;;;;;;6176039;28;19969;-55
2023/03/29 12:44:15;;;;;;;;;;;23.30;63.80;;;;;;6176194;28;19922;-54
2023/03/29 12:47:41;;;;;;;;;;;23.90;66.50;;;;;;6176092;28;20008;-55
2023/03/29 12:50:44;;;;;;;;;;;23.40;66.20;;;;;;6176581;28;19982;-53
2023/03/29 12:53:48;;;;;;;;;;;23.80;66.20;;;;;;6176720;28;20023;-52
2023/03/29 12:56:53;;;;;;;;;;;23.40;66.60;;;;;;6175172;28;20004;-54
2023/03/29 12:59:55;;;;;;;;;;;23.90;65.20;;;;;;6175988;28;19926;-52
2023/03/29 13:03:01;;;;;;;;;;;23.50;65.00;;;;;;6175650;28;19925;-51
2023/03/29 13:06:05;;;;;;;;;;;24.00;65.40;;;;;;6176060;28;19922;-53
2023/03/29 13:09:17;;;;;;;;;;;23.50;65.80;;;;;;6159144;28;19929;-53
2023/03/29 13:12:19;;;;;;;;;;;;;;;;;;6175738;28;19926;-48
2023/03/29 13:15:20;;;;;;;;;;;;;;;;;;6175571;28;20302;-50
2023/03/29 13:18:22;;;;;;;;;;;;;;;;;;6175613;28;19922;-47
2023/03/29 13:21:27;;;;;;;;;;;;;;;;;;6176025;28;20330;-50
2023/03/29 13:24:29;;;;;;;;;;;;;;;;;;6175546;28;19922;-49
2023/03/29 13:27:36;;;;;;;;;;;23.90;73.60;;;;;;6175276;28;19928;-48
2023/03/29 13:30:44;;;;;;;;;;;24.30;74.30;;;;;;6158439;28;19922;-48
2023/03/29 13:33:51;;;;;;;;;;;23.60;73.80;;;;;;6175364;28;19926;-50
2023/03/29 13:36:55;;;;;;;;;;;24.20;72.50;;;;;;6176015;28;19922;-49
2023/03/29 13:39:57;;;;;;;;;;;24.50;73.00;;;;;;6175600;28;19933;-47
2023/03/29 13:42:59;;;;;;;;;;;24.20;72.50;;;;;;6175228;28;20362;-50
2023/03/29 13:46:13;;;;;;;;;;;24.00;72.50;;;;;;6157953;28;19922;-48
2023/03/29 13:49:16;;;;;;;;;;;24.20;72.60;;;;;;6175129;28;20009;-46
2023/03/29 13:52:20;;;;;;;;;;;23.70;72.40;;;;;;6174984;28;19922;-52
2023/03/29 13:55:24;;;;;;;;;;;24.30;46.80;;;;;;6175300;28;20386;-52
2023/03/29 13:58:31;;;;;;;;;;;23.70;46.50;;;;;;6158424;28;19933;-52
2023/03/29 14:01:37;;;;;;;;;;;24.20;46.40;;;;;;6158069;28;19926;-53
2023/03/29 14:04:42;;;;;;;;;;;23.70;45.90;;;;;;6175008;28;19921;-51
2023/03/29 14:07:49;;;;;;;;;;;24.30;46.30;;;;;;6157092;28;20401;-52
2023/03/29 14:10:51;;;;;;;;;;;24.30;43.30;;;;;;6174943;28;20414;-52
2023/03/29 14:13:55;;;;;;;;;;;24.30;46.00;;;;;;6174694;28;19922;-48
2023/03/29 14:16:56;;;;;;;;;;;23.70;45.90;;;;;;6157410;28;19925;-51
2023/03/29 14:19:58;;;;;;;;;;;24.50;46.30;;;;;;6174731;28;19922;-52
2023/03/29 14:23:00;;;;;;;;;;;23.90;45.80;;;;;;6175042;28;19922;-52
2023/03/29 14:26:06;;;;;;;;;;;24.30;45.70;;;;;;6174495;28;19922;-50
2023/03/29 14:29:09;;;;;;;;;;;23.90;45.90;;;;;;6174746;28;19968;-51
2023/03/29 14:32:12;;;;;;;;;;;24.90;46.40;;;;;;6174504;28;19922;-52
2023/03/29 14:35:13;;;;;;;;;;;23.90;46.00;;;;;;6157282;28;20013;-51
2023/03/29 14:38:17;;;;;;;;;;;24.30;45.90;;;;;;6174954;28;19922;-54
2023/03/29 14:41:18;;;;;;;;;;;23.80;45.60;;;;;;6174431;28;19922;-52
2023/03/29 14:44:21;;;;;;;;;;;24.50;45.90;;;;;;6174003;28;19922;-52
2023/03/29 14:47:24;;;;;;;;;;;23.80;45.70;;;;;;6174682;28;19921;-52
2023/03/29 14:50:27;;;;;;;;;;;24.30;45.70;;;;;;6174084;28;19926;-51
2023/03/29 14:53:31;;;;;;;;;;;24.00;45.50;;;;;;6174021;28;20289;-54
2023/03/29 14:56:32;;;;;;;;;;;24.40;45.70;;;;;;6174384;28;19922;-51
2023/03/29 14:59:36;;;;;;;;;;;24.00;45.40;;;;;;6174060;28;19926;-54
2023/03/29 15:02:47;;;;;;;;;;;24.10;45.30;;;;;;6174027;28;20017;-55
2023/03/29 15:05:49;;;;;;;;;;;24.00;45.30;;;;;;6157520;28;20065;-54
2023/03/29 15:08:51;;;;;;;;;;;24.30;45.10;;;;;;6173849;28;20012;-52
2023/03/29 15:12:06;;;;;;;;;;;23.90;45.00;;;;;;6174180;28;20395;-53
2023/03/29 15:15:10;;;;;;;;;;;24.40;44.90;;;;;;6173734;28;19922;-54
2023/03/29 15:18:13;;;;;;;;;;;24.00;44.90;;;;;;6173995;28;20061;-53
2023/03/29 15:21:16;;;;;;;;;;;24.60;45.30;;;;;;6177648;28;19922;-53
2023/03/29 15:24:21;;;;;;;;;;;23.90;45.00;;;;;;6177833;28;19922;-53
2023/03/29 15:27:22;;;;;;;;;;;24.90;45.20;;;;;;6177420;28;19922;-49
2023/03/29 15:30:33;;;;;;;;;;;24.20;44.90;;;;;;6178033;28;19922;-52
2023/03/29 15:33:38;;;;;;;;;;;24.50;44.80;;;;;;6160265;28;20326;-50
2023/03/29 15:36:41;;;;;;;;;;;24.00;44.60;;;;;;6177630;28;20372;-53
2023/03/29 15:39:43;;;;;;;;;;;24.60;44.70;;;;;;6160768;28;19994;-50
2023/03/29 15:42:44;;;;;;;;;;;24.60;43.80;;;;;;6177626;28;19944;-51
2023/03/29 15:45:46;;;;;;;;;;;24.40;43.80;;;;;;6177442;28;19926;-52
2023/03/29 15:48:48;;;;;;;;;;;24.00;43.50;;;;;;6177709;28;19922;-51
2023/03/29 15:51:51;;;;;;;;;;;24.70;43.80;;;;;;6177442;28;19946;-51
2023/03/29 15:54:52;;;;;;;;;;;24.20;43.40;;;;;;6177135;28;19988;-48
2023/03/29 15:57:56;;;;;;;;;;;24.70;43.80;;;;;;6177068;28;20378;-47
2023/03/29 16:01:01;;;;;;;;;;;24.20;43.30;;;;;;6177291;28;19922;-49
2023/03/29 16:04:03;;;;;;;;;;;24.40;43.30;;;;;;6160318;28;20358;-46
2023/03/29 16:07:06;;;;;;;;;;;24.10;43.30;;;;;;6176936;28;20290;-50
2023/03/29 16:10:08;;;;;;;;;;;24.50;43.70;;;;;;6159662;28;19929;-51
2023/03/29 16:13:11;;;;;;;;;;;24.00;43.50;;;;;;6159639;28;19965;-50
2023/03/29 16:16:13;;;;;;;;;;;24.60;44.80;;;;;;6175408;28;19957;-51
2023/03/29 16:19:14;;;;;;;;;;;24.10;44.00;;;;;;6177570;28;19929;-52
2023/03/29 16:22:19;;;;;;;;;;;24.60;44.20;;;;;;6176823;28;19922;-51
2023/03/29 16:25:21;;;;;;;;;;;24.00;43.90;;;;;;6176617;28;20279;-47
2023/03/29 16:28:23;;;;;;;;;;;24.50;44.20;;;;;;6176866;28;19922;-51
2023/03/29 16:31:25;;;;;;;;;;;24.00;43.90;;;;;;6176738;28;20306;-47
2023/03/29 16:34:27;;;;;;;;;;;24.50;44.20;;;;;;6176354;28;19922;-50
2023/03/29 16:37:31;;;;;;;;;;;23.90;43.90;;;;;;6176605;28;19953;-49
2023/03/29 16:40:33;;;;;;;;;;;24.30;44.00;;;;;;6176662;28;19929;-51
2023/03/29 16:43:37;;;;;;;;;;;23.90;43.70;;;;;;6159313;28;20303;-49
2023/03/29 16:46:39;;;;;;;;;;;24.30;43.90;;;;;;6176390;28;19976;-51
2023/03/29 16:49:42;;;;;;;;;;;23.80;43.60;;;;;;6175922;28;20009;-47
2023/03/29 16:52:47;;;;;;;;;;;24.30;41.20;;;;;;6176365;28;20437;-48
2023/03/29 16:55:49;;;;;;;;;;;23.80;43.40;;;;;;6159124;28;19922;-51
2023/03/29 16:58:51;;;;;;;;;;;24.40;43.80;;;;;;6176020;28;19922;-51
2023/03/29 17:01:53;;;;;;;;;;;23.90;43.60;;;;;;6176430;28;19922;-51
2023/03/29 17:04:56;;;;;;;;;;;24.70;43.90;;;;;;6176091;28;19922;-49
2023/03/29 17:07:59;;;;;;;;;;;23.80;43.40;;;;;;6175742;28;19926;-50
2023/03/29 17:11:01;;;;;;;;;;;24.40;43.90;;;;;;6176141;28;19945;-48
2023/03/29 17:14:03;;;;;;;;;;;23.70;43.10;;;;;;6175768;28;19922;-47
2023/03/29 17:17:05;;;;;;;;;;;24.30;43.60;;;;;;6175830;28;20013;-51
2023/03/29 17:20:10;;;;;;;;;;;24.00;43.50;;;;;;6175990;28;19967;-50
2023/03/29 17:23:12;;;;;;;;;;;24.30;43.40;;;;;;6175867;28;20433;-51
2023/03/29 17:26:13;;;;;;;;;;;23.90;43.20;;;;;;6175262;28;20029;-49
2023/03/29 17:29:14;;;;;;;;;;;24.30;43.40;;;;;;6175835;28;19968;-48
2023/03/29 17:32:19;;;;;;;;;;;24.10;43.40;;;;;;6176138;28;19957;-51
2023/03/29 17:35:20;;;;;;;;;;;24.50;43.80;;;;;;6175490;28;19926;-52
2023/03/29 17:38:22;;;;;;;;;;;23.70;43.20;;;;;;6175684;28;19929;-51
2023/03/29 17:41:26;;;;;;;;;;;24.20;43.10;;;;;;6176104;28;19965;-51
2023/03/29 17:44:31;;;;;;;;;;;23.70;43.20;;;;;;6175124;28;20413;-49
2023/03/29 17:47:34;;;;;;;;;;;24.30;43.40;;;;;;6175706;28;19953;-49
2023/03/29 17:50:37;;;;;;;;;;;24.10;43.60;;;;;;6175333;28;20429;-51
2023/03/29 17:53:38;;;;;;;;;;;24.30;43.60;;;;;;6175115;28;19929;-51
2023/03/29 17:56:40;;;;;;;;;;;23.90;43.40;;;;;;6175407;28;20298;-48
2023/03/29 17:59:41;;;;;;;;;;;24.30;43.50;;;;;;6175074;28;20374;-51
2023/03/29 18:02:47;;;;;;;;;;;23.70;43.00;;;;;;6175000;28;19922;-52
2023/03/29 18:05:49;;;;;;;;;;;24.60;43.90;;;;;;6175280;28;20012;-51